createdAt,value
2022-09-25T00:01:19.899Z,15.32
2022-09-25T00:03:47.401Z,15.38
2022-09-25T00:06:19.132Z,15.39
2022-09-25T00:08:49.599Z,15.49
2022-09-25T00:11:22.818Z,15.36
2022-09-25T00:13:51.126Z,15.36
2022-09-25T00:16:26.437Z,15.50
2022-09-25T00:19:12.313Z,15.32
2022-09-25T00:21:39.396Z,15.42
2022-09-25T00:24:09.701Z,15.49
2022-09-25T00:26:41.187Z,15.51
2022-09-25T00:29:13.657Z,15.42
2022-09-25T00:31:40.642Z,15.41
2022-09-25T00:34:07.637Z,15.43
2022-09-25T00:36:37.141Z,15.42
2022-09-25T00:39:04.575Z,15.36
2022-09-25T00:41:32.215Z,15.36
2022-09-25T00:44:02.805Z,15.29
2022-09-25T00:46:40.723Z,15.18
2022-09-25T00:49:15.219Z,15.18
2022-09-25T00:52:05.096Z,15.09
2022-09-25T00:54:38.465Z,15.07
2022-09-25T00:57:10.781Z,14.98
2022-09-25T00:59:41.111Z,14.87
2022-09-25T01:02:14.324Z,14.80
2022-09-25T01:04:46.203Z,14.80
2022-09-25T01:07:16.833Z,14.65
2022-09-25T01:09:45.583Z,14.69
2022-09-25T01:12:12.908Z,14.49
2022-09-25T01:14:40.362Z,14.47
2022-09-25T01:17:14.159Z,14.24
2022-09-25T01:20:23.640Z,14.16
2022-09-25T01:23:23.116Z,14.25
2022-09-25T01:26:04.902Z,14.36
2022-09-25T01:28:53.627Z,14.34
2022-09-25T01:31:35.747Z,14.26
2022-09-25T01:34:31.490Z,14.30
2022-09-25T01:37:42.127Z,14.19
2022-09-25T01:40:58.252Z,14.16
2022-09-25T01:43:57.086Z,14.14
2022-09-25T01:46:30.481Z,13.84
2022-09-25T01:48:59.046Z,13.84
2022-09-25T01:51:38.296Z,13.82
2022-09-25T01:54:23.126Z,13.94
2022-09-25T01:57:03.767Z,14.05
2022-09-25T01:59:40.266Z,13.90
2022-09-25T02:02:13.923Z,13.95
2022-09-25T02:05:07.178Z,13.98
2022-09-25T02:07:45.141Z,13.94
2022-09-25T02:10:26.636Z,13.91
2022-09-25T02:13:03.868Z,13.91
2022-09-25T02:15:37.151Z,13.89
2022-09-25T02:18:27.705Z,13.89
2022-09-25T02:21:09.919Z,13.73
2022-09-25T02:24:05.774Z,13.71
2022-09-25T02:26:44.856Z,13.66
2022-09-25T02:29:12.923Z,13.74
2022-09-25T02:31:49.968Z,13.72
2022-09-25T02:34:17.346Z,13.72
2022-09-25T02:36:44.922Z,13.60
2022-09-25T02:39:16.078Z,13.49
2022-09-25T02:42:17.172Z,13.19
2022-09-25T02:45:07.138Z,13.39
2022-09-25T02:48:28.245Z,13.17
2022-09-25T02:51:33.558Z,13.05
2022-09-25T02:54:21.419Z,13.23
2022-09-25T02:57:04.406Z,13.12
2022-09-25T02:59:45.578Z,13.19
2022-09-25T03:02:15.907Z,13.26
2022-09-25T03:04:45.062Z,13.24
2022-09-25T03:07:12.277Z,13.30
2022-09-25T03:09:46.920Z,13.25
2022-09-25T03:12:14.900Z,13.03
2022-09-25T03:14:41.966Z,13.16
2022-09-25T03:17:10.347Z,13.14
2022-09-25T03:19:38.235Z,13.11
2022-09-25T03:22:05.352Z,13.12
2022-09-25T03:24:32.337Z,12.93
2022-09-25T03:26:59.333Z,12.97
2022-09-25T03:29:29.927Z,12.96
2022-09-25T03:31:59.157Z,13.00
2022-09-25T03:34:26.175Z,12.91
2022-09-25T03:36:53.608Z,12.78
2022-09-25T03:39:20.746Z,12.91
2022-09-25T03:41:48.045Z,12.59
2022-09-25T03:44:15.602Z,12.81
2022-09-25T03:46:42.739Z,12.79
2022-09-25T03:49:10.811Z,12.88
2022-09-25T03:51:38.949Z,12.84
2022-09-25T03:54:06.362Z,12.83
2022-09-25T03:56:33.851Z,12.85
2022-09-25T03:59:01.197Z,12.78
2022-09-25T04:01:31.841Z,12.90
2022-09-25T04:04:01.466Z,12.82
2022-09-25T04:06:28.544Z,12.81
2022-09-25T04:08:55.718Z,12.84
2022-09-25T04:11:26.743Z,12.87
2022-09-25T04:13:53.795Z,12.86
2022-09-25T04:16:21.464Z,12.71
2022-09-25T04:18:53.163Z,12.86
2022-09-25T04:21:22.665Z,12.74
2022-09-25T04:24:08.607Z,12.78
2022-09-25T04:26:36.451Z,12.83
2022-09-25T04:29:03.915Z,12.83
2022-09-25T04:31:32.277Z,12.89
2022-09-25T04:33:59.448Z,12.82
2022-09-25T04:36:26.514Z,12.84
2022-09-25T04:38:53.547Z,12.91
2022-09-25T04:41:20.650Z,12.96
2022-09-25T04:43:48.151Z,12.70
2022-09-25T04:46:21.792Z,12.79
2022-09-25T04:48:49.789Z,12.58
2022-09-25T04:51:16.840Z,12.62
2022-09-25T04:53:43.874Z,12.76
2022-09-25T04:56:15.937Z,12.82
2022-09-25T04:58:50.649Z,12.85
2022-09-25T05:01:21.089Z,12.99
2022-09-25T05:03:50.518Z,12.89
2022-09-25T05:06:17.701Z,13.05
2022-09-25T05:08:44.935Z,12.98
2022-09-25T05:11:11.988Z,13.22
2022-09-25T05:13:39.092Z,13.38
2022-09-25T05:16:06.507Z,13.38
2022-09-25T05:18:33.678Z,13.55
2022-09-25T05:21:01.260Z,13.61
2022-09-25T05:23:31.275Z,13.49
2022-09-25T05:26:01.009Z,13.57
2022-09-25T05:28:32.462Z,13.52
2022-09-25T05:31:04.509Z,13.53
2022-09-25T05:33:32.886Z,13.33
2022-09-25T05:36:07.244Z,13.59
2022-09-25T05:38:38.394Z,13.73
2022-09-25T05:41:08.420Z,13.69
2022-09-25T05:43:41.832Z,13.47
2022-09-25T05:46:09.994Z,13.52
2022-09-25T05:48:37.319Z,13.93
2022-09-25T05:51:04.743Z,14.08
2022-09-25T05:53:32.017Z,14.34
2022-09-25T05:56:03.821Z,14.41
2022-09-25T05:58:33.640Z,14.47
2022-09-25T06:01:05.690Z,14.55
2022-09-25T06:03:33.107Z,14.13
2022-09-25T06:06:00.840Z,13.85
2022-09-25T06:08:32.472Z,14.24
2022-09-25T06:11:02.553Z,14.65
2022-09-25T06:13:34.836Z,14.83
2022-09-25T06:16:02.962Z,14.95
2022-09-25T06:18:30.039Z,14.91
2022-09-25T06:21:07.076Z,15.05
2022-09-25T06:23:34.119Z,15.12
2022-09-25T06:26:07.808Z,15.24
2022-09-25T06:28:35.629Z,15.50
2022-09-25T06:31:06.254Z,15.40
2022-09-25T06:33:33.661Z,15.52
2022-09-25T06:36:06.023Z,15.41
2022-09-25T06:38:36.040Z,15.47
2022-09-25T06:41:03.116Z,15.76
2022-09-25T06:43:30.375Z,15.81
2022-09-25T06:46:02.286Z,15.33
2022-09-25T06:48:32.259Z,15.71
2022-09-25T06:51:03.063Z,15.86
2022-09-25T06:53:30.116Z,16.01
2022-09-25T06:55:59.639Z,16.12
2022-09-25T06:58:27.358Z,16.57
2022-09-25T07:00:56.236Z,16.41
2022-09-25T07:03:43.033Z,15.54
2022-09-25T07:06:22.378Z,16.40
2022-09-25T07:08:51.308Z,16.18
2022-09-25T07:11:21.770Z,16.62
2022-09-25T07:13:51.292Z,16.78
2022-09-25T07:16:20.178Z,17.21
2022-09-25T07:18:47.720Z,17.50
2022-09-25T07:21:18.250Z,17.11
2022-09-25T07:23:51.305Z,17.74
2022-09-25T07:26:27.859Z,17.54
2022-09-25T07:28:58.609Z,17.86
2022-09-25T07:31:31.896Z,18.52
2022-09-25T07:34:03.068Z,18.76
2022-09-25T07:36:30.135Z,18.76
2022-09-25T07:38:59.740Z,17.48
2022-09-25T07:41:26.795Z,17.47
2022-09-25T07:46:46.421Z,18.24
2022-09-25T07:49:13.949Z,19.41
2022-09-25T07:51:41.071Z,20.00
2022-09-25T07:54:10.955Z,20.47
2022-09-25T07:56:40.622Z,20.38
2022-09-25T07:59:07.590Z,19.83
2022-09-25T08:01:37.234Z,20.13
2022-09-25T08:04:08.173Z,19.40
2022-09-25T08:06:36.096Z,21.18
2022-09-25T08:09:08.103Z,21.82
2022-09-25T08:11:37.511Z,20.60
2022-09-25T08:14:04.616Z,20.26
2022-09-25T08:16:31.653Z,20.99
2022-09-25T08:18:58.674Z,21.39
2022-09-25T08:21:25.651Z,21.40
2022-09-25T08:23:54.752Z,20.95
2022-09-25T08:26:23.130Z,20.76
2022-09-25T08:28:51.823Z,20.91
2022-09-25T08:31:18.960Z,20.69
2022-09-25T08:33:47.543Z,20.40
2022-09-25T08:36:16.244Z,20.40
2022-09-25T08:38:43.675Z,20.51
2022-09-25T08:41:28.061Z,20.96
2022-09-25T08:44:06.446Z,20.74
2022-09-25T08:47:04.836Z,20.94
2022-09-25T08:49:41.595Z,20.38
2022-09-25T08:52:16.517Z,21.43
2022-09-25T08:54:46.143Z,21.96
2022-09-25T08:57:27.746Z,22.20
2022-09-25T09:00:02.581Z,21.63
2022-09-25T09:02:55.381Z,21.76
2022-09-25T09:05:32.054Z,22.01
2022-09-25T09:08:15.704Z,22.20
2022-09-25T09:10:53.314Z,22.83
2022-09-25T09:13:44.857Z,22.48
2022-09-25T09:17:03.123Z,23.31
2022-09-25T09:19:30.312Z,23.35
2022-09-25T09:22:12.395Z,23.81
2022-09-25T09:24:57.246Z,23.89
2022-09-25T09:27:58.476Z,24.28
2022-09-25T09:30:45.087Z,24.58
2022-09-25T09:33:28.365Z,25.70
2022-09-25T09:36:10.450Z,26.13
2022-09-25T09:39:05.893Z,26.93
2022-09-25T09:41:42.524Z,26.55
2022-09-25T09:44:24.069Z,22.75
2022-09-25T09:47:27.286Z,23.22
2022-09-25T09:50:15.034Z,24.16
2022-09-25T09:52:44.064Z,23.84
2022-09-25T09:55:48.110Z,25.20
2022-09-25T09:58:44.208Z,24.69
2022-09-25T10:01:39.662Z,22.58
2022-09-25T10:04:29.216Z,22.32
2022-09-25T10:07:14.929Z,21.06
2022-09-25T10:09:44.199Z,21.27
2022-09-25T10:12:24.129Z,21.42
2022-09-25T10:14:51.836Z,22.44
2022-09-25T10:17:20.118Z,22.60
2022-09-25T10:19:59.756Z,22.52
2022-09-25T10:22:42.630Z,22.55
2022-09-25T10:25:12.135Z,21.70
2022-09-25T10:27:48.896Z,21.16
2022-09-25T10:30:20.308Z,20.30
2022-09-25T10:33:03.491Z,21.27
2022-09-25T10:35:39.660Z,20.73
2022-09-25T10:38:20.137Z,21.20
2022-09-25T10:41:13.265Z,21.63
2022-09-25T10:44:21.835Z,21.28
2022-09-25T10:47:07.195Z,20.33
2022-09-25T10:50:06.641Z,20.78
2022-09-25T10:52:59.119Z,21.35
2022-09-25T10:55:41.859Z,21.60
2022-09-25T10:58:11.934Z,22.56
2022-09-25T11:00:51.107Z,22.75
2022-09-25T11:03:32.266Z,23.02
2022-09-25T11:06:17.619Z,21.97
2022-09-25T11:08:44.898Z,22.52
2022-09-25T11:11:14.188Z,20.86
2022-09-25T11:13:55.929Z,21.47
2022-09-25T11:16:46.680Z,20.43
2022-09-25T11:19:31.464Z,20.89
2022-09-25T11:22:14.097Z,22.26
2022-09-25T11:25:22.149Z,21.94
2022-09-25T11:28:13.650Z,22.40
2022-09-25T11:30:51.603Z,24.33
2022-09-25T11:33:29.758Z,25.19
2022-09-25T11:36:17.386Z,26.95
2022-09-25T11:39:11.930Z,25.08
2022-09-25T11:41:46.113Z,25.84
2022-09-25T11:44:54.352Z,27.86
2022-09-25T11:47:46.155Z,23.65
2022-09-25T11:50:18.582Z,25.62
2022-09-25T11:53:24.325Z,25.04
2022-09-25T11:56:35.264Z,26.20
2022-09-25T11:59:41.886Z,25.66
2022-09-25T12:02:56.800Z,25.40
2022-09-25T12:05:49.291Z,25.79
2022-09-25T12:08:49.050Z,25.83
2022-09-25T12:11:55.752Z,26.16
2022-09-25T12:14:37.896Z,23.62
2022-09-25T12:17:47.505Z,25.06
2022-09-25T12:20:32.573Z,25.30
2022-09-25T12:23:36.076Z,25.02
2022-09-25T12:26:26.239Z,25.55
2022-09-25T12:28:58.946Z,26.07
2022-09-25T12:32:04.508Z,24.58
2022-09-25T12:35:11.075Z,25.06
2022-09-25T12:38:21.618Z,26.47
2022-09-25T12:41:30.039Z,26.05
2022-09-25T12:44:29.589Z,26.72
2022-09-25T12:47:15.460Z,27.07
2022-09-25T12:50:03.910Z,27.84
2022-09-25T12:52:42.573Z,27.79
2022-09-25T12:55:31.682Z,27.26
2022-09-25T12:58:48.408Z,27.99
2022-09-25T13:01:26.071Z,28.09
2022-09-25T13:04:37.786Z,27.80
2022-09-25T13:07:23.629Z,27.24
2022-09-25T13:09:50.881Z,27.06
2022-09-25T13:12:37.820Z,26.47
2022-09-25T13:15:26.333Z,26.47
2022-09-25T13:17:53.582Z,27.82
2022-09-25T13:20:26.702Z,27.89
2022-09-25T13:23:26.705Z,27.09
2022-09-25T13:26:22.682Z,27.02
2022-09-25T13:28:50.584Z,27.12
2022-09-25T13:31:33.604Z,26.19
2022-09-25T13:34:00.476Z,26.21
2022-09-25T13:36:45.960Z,24.70
2022-09-25T13:39:54.513Z,24.30
2022-09-25T13:42:23.046Z,24.82
2022-09-25T13:45:26.149Z,24.48
2022-09-25T13:48:31.606Z,23.60
2022-09-25T13:51:20.110Z,23.65
2022-09-25T13:54:09.479Z,23.84
2022-09-25T13:56:42.524Z,23.89
2022-09-25T13:59:13.897Z,23.94
2022-09-25T14:01:56.916Z,23.73
2022-09-25T14:04:36.446Z,23.75
2022-09-25T14:07:23.365Z,23.62
2022-09-25T14:09:56.239Z,23.48
2022-09-25T14:12:43.184Z,23.37
2022-09-25T14:15:27.021Z,22.76
2022-09-25T14:17:57.557Z,22.82
2022-09-25T14:20:35.467Z,22.41
2022-09-25T14:23:40.181Z,22.81
2022-09-25T14:26:22.776Z,22.69
2022-09-25T14:28:52.517Z,23.24
2022-09-25T14:31:37.584Z,23.19
2022-09-25T14:34:37.724Z,23.86
2022-09-25T14:37:30.487Z,23.92
2022-09-25T14:40:22.391Z,23.97
2022-09-25T14:43:29.805Z,24.02
2022-09-25T14:46:02.075Z,24.68
2022-09-25T14:48:45.129Z,25.09
2022-09-25T14:51:25.514Z,25.31
2022-09-25T14:54:01.602Z,25.89
2022-09-25T14:56:34.178Z,26.02
2022-09-25T14:59:11.497Z,26.09
2022-09-25T15:01:51.080Z,25.99
2022-09-25T15:04:34.666Z,26.03
2022-09-25T15:07:14.377Z,25.48
2022-09-25T15:09:48.402Z,25.85
2022-09-25T15:12:29.767Z,26.16
2022-09-25T15:15:11.815Z,25.91
2022-09-25T15:17:50.839Z,25.40
2022-09-25T15:20:24.309Z,25.95
2022-09-25T15:23:08.544Z,25.53
2022-09-25T15:26:05.187Z,25.01
2022-09-25T15:28:40.136Z,24.62
2022-09-25T15:31:08.339Z,23.87
2022-09-25T15:33:38.966Z,23.59
2022-09-25T15:36:23.947Z,22.83
2022-09-25T15:39:16.389Z,23.00
2022-09-25T15:41:44.771Z,22.59
2022-09-25T15:44:15.700Z,22.36
2022-09-25T15:46:53.738Z,22.13
2022-09-25T15:49:43.304Z,21.79
2022-09-25T15:52:22.178Z,21.57
2022-09-25T15:54:49.260Z,21.47
2022-09-25T15:57:27.067Z,21.39
2022-09-25T16:00:13.455Z,21.03
2022-09-25T16:03:09.479Z,20.64
2022-09-25T16:05:44.005Z,21.09
2022-09-25T16:08:32.118Z,21.01
2022-09-25T16:11:26.851Z,20.83
2022-09-25T16:14:31.296Z,20.42
2022-09-25T16:17:00.327Z,20.51
2022-09-25T16:19:27.782Z,20.36
2022-09-25T16:21:55.281Z,20.19
2022-09-25T16:24:26.760Z,19.90
2022-09-25T16:27:07.598Z,19.93
2022-09-25T16:29:39.305Z,19.79
2022-09-25T16:32:15.150Z,19.25
2022-09-25T16:34:58.459Z,19.46
2022-09-25T16:37:32.274Z,19.21
2022-09-25T16:40:17.931Z,19.15
2022-09-25T16:42:47.540Z,19.17
2022-09-25T16:45:27.911Z,18.99
2022-09-25T16:47:58.479Z,18.48
2022-09-25T16:50:39.530Z,18.48
2022-09-25T16:53:07.073Z,18.51
2022-09-25T16:55:38.219Z,18.40
2022-09-25T16:58:10.309Z,18.31
2022-09-25T17:00:37.572Z,18.24
2022-09-25T17:03:04.743Z,17.84
2022-09-25T17:05:32.842Z,17.86
2022-09-25T17:08:20.672Z,17.88
2022-09-25T17:10:51.368Z,17.47
2022-09-25T17:13:26.704Z,17.70
2022-09-25T17:15:55.825Z,17.70
2022-09-25T17:18:23.040Z,17.66
2022-09-25T17:20:54.701Z,17.49
2022-09-25T17:23:24.555Z,17.26
2022-09-25T17:26:00.860Z,17.22
2022-09-25T17:28:29.473Z,16.86
2022-09-25T17:30:56.571Z,16.77
2022-09-25T17:33:24.079Z,16.89
2022-09-25T17:36:03.462Z,16.87
2022-09-25T17:38:32.430Z,16.86
2022-09-25T17:41:06.240Z,16.46
2022-09-25T17:43:33.439Z,16.64
2022-09-25T17:46:01.385Z,16.63
2022-09-25T17:48:33.753Z,16.63
2022-09-25T17:51:15.978Z,16.30
2022-09-25T17:53:44.439Z,16.23
2022-09-25T17:56:15.235Z,16.25
2022-09-25T17:58:44.570Z,16.26
2022-09-25T18:01:23.818Z,16.16
2022-09-25T18:04:23.989Z,16.15
2022-09-25T18:06:52.146Z,16.05
2022-09-25T18:09:19.511Z,15.96
2022-09-25T18:11:49.007Z,15.81
2022-09-25T18:14:17.364Z,15.80
2022-09-25T18:16:45.541Z,15.51
2022-09-25T18:19:39.363Z,15.10
2022-09-25T18:22:19.565Z,15.25
2022-09-25T18:24:50.608Z,15.11
2022-09-25T18:27:17.631Z,15.14
2022-09-25T18:29:45.825Z,14.92
2022-09-25T18:32:13.643Z,14.78
2022-09-25T18:34:49.786Z,14.96
2022-09-25T18:37:16.891Z,14.66
2022-09-25T18:39:48.124Z,14.60
2022-09-25T18:42:15.290Z,14.44
2022-09-25T18:44:43.136Z,14.50
2022-09-25T18:47:11.509Z,14.68
2022-09-25T18:49:43.686Z,14.47
2022-09-25T18:52:11.581Z,14.16
2022-09-25T18:54:42.010Z,14.41
2022-09-25T18:57:11.043Z,14.45
2022-09-25T18:59:39.205Z,14.48
2022-09-25T19:02:10.312Z,14.39
2022-09-25T19:04:39.834Z,14.17
2022-09-25T19:07:09.472Z,14.11
2022-09-25T19:09:38.930Z,14.25
2022-09-25T19:12:07.297Z,14.32
2022-09-25T19:14:35.731Z,14.22
2022-09-25T19:17:02.823Z,14.13
2022-09-25T19:19:30.337Z,14.20
2022-09-25T19:21:57.330Z,14.16
2022-09-25T19:24:24.502Z,14.28
2022-09-25T19:26:51.532Z,14.26
2022-09-25T19:29:18.686Z,14.16
2022-09-25T19:31:46.335Z,13.97
2022-09-25T19:34:13.341Z,13.88
2022-09-25T19:36:40.369Z,13.84
2022-09-25T19:39:07.449Z,13.83
2022-09-25T19:41:38.026Z,13.90
2022-09-25T19:44:13.433Z,13.90
2022-09-25T19:46:42.804Z,13.81
2022-09-25T19:49:11.268Z,13.87
2022-09-25T19:51:38.756Z,13.58
2022-09-25T19:54:07.836Z,13.92
2022-09-25T19:56:40.850Z,14.00
2022-09-25T19:59:13.557Z,13.95
2022-09-25T20:01:43.115Z,13.84
2022-09-25T20:04:17.461Z,13.88
2022-09-25T20:06:46.948Z,14.04
2022-09-25T20:09:14.529Z,14.10
2022-09-25T20:11:41.599Z,14.12
2022-09-25T20:14:08.779Z,14.22
2022-09-25T20:16:40.789Z,14.31
2022-09-25T20:19:08.062Z,14.37
2022-09-25T20:21:38.075Z,14.33
2022-09-25T20:24:08.134Z,14.36
2022-09-25T20:26:38.020Z,14.28
2022-09-25T20:29:17.150Z,14.41
2022-09-25T20:31:46.009Z,14.47
2022-09-25T20:34:19.755Z,14.46
2022-09-25T20:36:47.229Z,14.66
2022-09-25T20:39:20.495Z,14.71
2022-09-25T20:41:51.865Z,14.76
2022-09-25T20:44:18.856Z,14.47
2022-09-25T20:46:45.973Z,14.02
2022-09-25T20:49:16.418Z,14.57
2022-09-25T20:51:43.853Z,13.85
2022-09-25T20:54:11.250Z,14.19
2022-09-25T20:56:43.860Z,14.32
2022-09-25T20:59:12.148Z,14.57
2022-09-25T21:01:41.028Z,14.70
2022-09-25T21:04:09.994Z,14.83
2022-09-25T21:06:44.076Z,14.89
2022-09-25T21:09:24.058Z,14.97
2022-09-25T21:11:52.413Z,15.02
2022-09-25T21:14:28.894Z,15.02
2022-09-25T21:16:56.404Z,15.11
2022-09-25T21:19:24.071Z,15.32
2022-09-25T21:21:51.355Z,14.92
2022-09-25T21:24:22.558Z,14.94
2022-09-25T21:26:50.060Z,15.07
2022-09-25T21:29:18.389Z,15.26
2022-09-25T21:31:50.255Z,15.36
2022-09-25T21:34:21.447Z,15.49
2022-09-25T21:36:49.235Z,15.56
2022-09-25T21:39:16.636Z,15.58
2022-09-25T21:41:43.755Z,15.46
2022-09-25T21:44:17.108Z,15.37
2022-09-25T21:46:44.554Z,15.46
2022-09-25T21:49:21.663Z,15.44
2022-09-25T21:51:51.690Z,15.61
2022-09-25T21:54:18.990Z,15.63
2022-09-25T21:56:47.791Z,15.69
2022-09-25T21:59:15.619Z,15.69
2022-09-25T22:01:42.999Z,15.61
2022-09-25T22:04:13.707Z,15.72
2022-09-25T22:06:47.190Z,15.55
2022-09-25T22:09:30.367Z,15.57
2022-09-25T22:11:57.492Z,15.52
2022-09-25T22:14:24.519Z,15.49
2022-09-25T22:16:53.005Z,15.38
2022-09-25T22:19:29.520Z,14.95
2022-09-25T22:21:58.881Z,14.86
2022-09-25T22:24:27.247Z,15.04
2022-09-25T22:26:56.574Z,15.31
2022-09-25T22:29:26.098Z,15.48
2022-09-25T22:31:53.550Z,15.25
2022-09-25T22:34:27.501Z,15.49
2022-09-25T22:36:59.489Z,15.61
2022-09-25T22:39:29.117Z,15.68
2022-09-25T22:41:57.172Z,15.58
2022-09-25T22:44:27.025Z,15.70
2022-09-25T22:46:54.135Z,15.79
2022-09-25T22:49:21.268Z,15.61
2022-09-25T22:51:48.397Z,15.67
2022-09-25T22:54:15.892Z,15.65
2022-09-25T22:56:44.105Z,15.28
2022-09-25T22:59:18.311Z,15.39
2022-09-25T23:01:49.209Z,15.39
2022-09-25T23:04:23.391Z,15.51
2022-09-25T23:06:51.195Z,15.67
2022-09-25T23:09:26.957Z,15.57
2022-09-25T23:11:57.905Z,15.74
2022-09-25T23:14:31.504Z,15.78
2022-09-25T23:16:59.989Z,15.68
2022-09-25T23:19:27.398Z,15.54
2022-09-25T23:21:55.149Z,15.69
2022-09-25T23:24:25.139Z,15.53
2022-09-25T23:26:55.383Z,15.35
2022-09-25T23:29:22.969Z,15.42
2022-09-25T23:31:51.049Z,15.37
2022-09-25T23:34:19.066Z,15.39
2022-09-25T23:36:46.421Z,15.54
2022-09-25T23:39:19.778Z,15.52
2022-09-25T23:41:47.402Z,15.56
2022-09-25T23:44:14.434Z,15.44
2022-09-25T23:46:43.554Z,15.49
2022-09-25T23:49:11.454Z,15.36
2022-09-25T23:51:39.164Z,15.57
2022-09-25T23:54:09.601Z,15.50
2022-09-25T23:56:36.817Z,15.59
2022-09-25T23:59:05.266Z,15.58
